createdAt,value
2019-01-04T00:00:39.648Z,0
2019-01-04T00:01:39.654Z,0
2019-01-04T00:02:39.137Z,0
2019-01-04T00:03:39.666Z,0
2019-01-04T00:04:39.624Z,0
2019-01-04T00:05:39.615Z,0
2019-01-04T00:06:39.371Z,0
2019-01-04T00:07:39.614Z,0
2019-01-04T00:08:39.406Z,0
2019-01-04T00:09:39.337Z,0
2019-01-04T00:10:39.596Z,0
2019-01-04T00:11:38.807Z,0
2019-01-04T00:12:39.417Z,0
2019-01-04T00:13:39.295Z,0
2019-01-04T00:14:39.288Z,0
2019-01-04T00:15:39.316Z,0
2019-01-04T00:16:39.307Z,0
2019-01-04T00:17:39.239Z,0
2019-01-04T00:18:40.052Z,0
2019-01-04T00:19:39.207Z,0
2019-01-04T00:20:39.193Z,0
2019-01-04T00:21:39.207Z,0
2019-01-04T00:22:39.419Z,0
2019-01-04T00:23:38.908Z,0
2019-01-04T00:24:39.260Z,0
2019-01-04T00:25:39.388Z,0
2019-01-04T00:26:39.202Z,0
2019-01-04T00:27:39.151Z,0
2019-01-04T00:28:39.362Z,0
2019-01-04T00:29:38.866Z,0
2019-01-04T00:30:39.340Z,0
2019-01-04T00:31:38.605Z,0
2019-01-04T00:32:39.336Z,0
2019-01-04T00:33:40.978Z,0
2019-01-04T00:34:39.070Z,0
2019-01-04T00:35:39.307Z,0
2019-01-04T00:36:38.826Z,0
2019-01-04T00:37:39.026Z,0
2019-01-04T00:38:38.761Z,0
2019-01-04T00:39:39.989Z,0
2019-01-04T00:40:39.250Z,0
2019-01-04T00:41:39.249Z,0
2019-01-04T00:42:39.211Z,0
2019-01-04T00:43:38.749Z,0
2019-01-04T00:44:38.456Z,0
2019-01-04T00:45:38.462Z,0
2019-01-04T00:46:39.255Z,0
2019-01-04T00:47:38.696Z,0
2019-01-04T00:48:42.584Z,0
2019-01-04T00:49:39.152Z,0
2019-01-04T00:50:38.636Z,0
2019-01-04T00:51:38.931Z,0
2019-01-04T00:52:38.868Z,0
2019-01-04T00:53:38.386Z,0
2019-01-04T00:54:38.889Z,0
2019-01-04T00:55:38.827Z,0
2019-01-04T00:56:38.635Z,0
2019-01-04T00:57:38.580Z,0
2019-01-04T00:58:38.839Z,0
2019-01-04T00:59:38.813Z,0
2019-01-04T01:00:38.805Z,0
2019-01-04T01:01:38.789Z,0
2019-01-04T01:02:38.787Z,0
2019-01-04T01:03:39.014Z,0
2019-01-04T01:04:38.550Z,0
2019-01-04T01:05:38.237Z,0
2019-01-04T01:06:38.979Z,0
2019-01-04T01:07:38.963Z,0
2019-01-04T01:08:38.957Z,0
2019-01-04T01:09:38.927Z,0
2019-01-04T01:10:38.439Z,0
2019-01-04T01:11:38.483Z,0
2019-01-04T01:12:38.656Z,0
2019-01-04T01:13:38.422Z,0
2019-01-04T01:14:38.415Z,0
2019-01-04T01:15:38.380Z,0
2019-01-04T01:16:38.645Z,0
2019-01-04T01:17:38.856Z,0
2019-01-04T01:18:38.611Z,0
2019-01-04T01:19:41.293Z,0
2019-01-04T01:20:38.560Z,0
2019-01-04T01:21:38.106Z,0
2019-01-04T01:22:38.303Z,0
2019-01-04T01:23:38.551Z,0
2019-01-04T01:24:38.032Z,0
2019-01-04T01:25:38.275Z,0
2019-01-04T01:26:38.783Z,0
2019-01-04T01:27:38.252Z,0
2019-01-04T01:28:38.742Z,0
2019-01-04T01:29:38.485Z,0
2019-01-04T01:30:38.230Z,0
2019-01-04T01:31:38.507Z,0
2019-01-04T01:32:38.213Z,0
2019-01-04T01:33:38.430Z,0
2019-01-04T01:34:38.439Z,0
2019-01-04T01:35:38.444Z,0
2019-01-04T01:36:38.652Z,0
2019-01-04T01:37:38.201Z,0
2019-01-04T01:38:38.389Z,0
2019-01-04T01:39:38.178Z,0
2019-01-04T01:40:38.619Z,0
2019-01-04T01:41:37.910Z,0
2019-01-04T01:42:38.089Z,0
2019-01-04T01:43:38.585Z,0
2019-01-04T01:44:38.349Z,0
2019-01-04T01:45:38.324Z,0
2019-01-04T01:46:38.334Z,0
2019-01-04T01:47:38.051Z,0
2019-01-04T01:48:38.294Z,0
2019-01-04T01:49:38.581Z,0
2019-01-04T01:50:38.493Z,0
2019-01-04T01:51:38.086Z,0
2019-01-04T01:52:38.226Z,0
2019-01-04T01:53:38.260Z,0
2019-01-04T01:54:37.728Z,0
2019-01-04T01:55:38.213Z,0
2019-01-04T01:56:38.099Z,0
2019-01-04T01:57:38.197Z,0
2019-01-04T01:58:37.934Z,0
2019-01-04T01:59:38.189Z,0
2019-01-04T02:00:37.655Z,0
2019-01-04T02:01:38.160Z,0
2019-01-04T02:02:38.367Z,0
2019-01-04T02:03:38.129Z,0
2019-01-04T02:04:38.165Z,0
2019-01-04T02:05:37.591Z,0
2019-01-04T02:06:37.827Z,0
2019-01-04T02:07:37.574Z,0
2019-01-04T02:08:38.054Z,0
2019-01-04T02:09:37.819Z,0
2019-01-04T02:10:38.053Z,0
2019-01-04T02:11:38.134Z,0
2019-01-04T02:12:38.021Z,0
2019-01-04T02:13:37.757Z,0
2019-01-04T02:14:38.253Z,0
2019-01-04T02:15:38.247Z,0
2019-01-04T02:16:38.012Z,0
2019-01-04T02:17:37.979Z,0
2019-01-04T02:18:37.949Z,0
2019-01-04T02:19:38.107Z,0
2019-01-04T02:20:37.922Z,0
2019-01-04T02:21:37.999Z,0
2019-01-04T02:22:37.918Z,0
2019-01-04T02:23:37.417Z,0
2019-01-04T02:24:37.911Z,0
2019-01-04T02:25:37.393Z,0
2019-01-04T02:26:37.956Z,0
2019-01-04T02:27:37.851Z,0
2019-01-04T02:28:37.618Z,0
2019-01-04T02:29:38.080Z,0
2019-01-04T02:30:37.596Z,0
2019-01-04T02:31:37.878Z,0
2019-01-04T02:32:38.075Z,0
2019-01-04T02:33:38.079Z,0
2019-01-04T02:34:37.780Z,0
2019-01-04T02:35:37.286Z,0
2019-01-04T02:36:37.783Z,0
2019-01-04T02:37:37.509Z,0
2019-01-04T02:38:37.513Z,0
2019-01-04T02:39:37.738Z,0
2019-01-04T02:40:37.229Z,0
2019-01-04T02:41:37.559Z,0
2019-01-04T02:42:37.727Z,0
2019-01-04T02:43:37.675Z,0
2019-01-04T02:44:37.705Z,0
2019-01-04T02:45:37.911Z,0
2019-01-04T02:46:37.452Z,0
2019-01-04T02:47:37.164Z,0
2019-01-04T02:48:37.904Z,0
2019-01-04T02:49:41.275Z,0
2019-01-04T02:50:37.598Z,0
2019-01-04T02:51:37.658Z,0
2019-01-04T02:52:37.584Z,0
2019-01-04T02:53:37.094Z,0
2019-01-04T02:54:37.659Z,0
2019-01-04T02:55:37.550Z,0
2019-01-04T02:56:37.861Z,0
2019-01-04T02:57:37.545Z,0
2019-01-04T02:58:37.826Z,0
2019-01-04T02:59:37.772Z,0
2019-01-04T03:00:37.511Z,0
2019-01-04T03:01:37.501Z,0
2019-01-04T03:02:37.488Z,0
2019-01-04T03:03:37.000Z,0
2019-01-04T03:04:37.453Z,0
2019-01-04T03:05:37.722Z,0
2019-01-04T03:06:37.737Z,0
2019-01-04T03:07:37.415Z,0
2019-01-04T03:08:37.664Z,0
2019-01-04T03:09:36.932Z,0
2019-01-04T03:10:37.654Z,0
2019-01-04T03:11:37.483Z,0
2019-01-04T03:12:36.866Z,0
2019-01-04T03:13:37.359Z,0
2019-01-04T03:14:37.616Z,0
2019-01-04T03:15:37.074Z,0
2019-01-04T03:16:37.126Z,0
2019-01-04T03:17:37.574Z,0
2019-01-04T03:18:37.295Z,0
2019-01-04T03:19:37.535Z,0
2019-01-04T03:20:37.845Z,0
2019-01-04T03:21:37.547Z,0
2019-01-04T03:22:37.495Z,0
2019-01-04T03:23:37.227Z,0
2019-01-04T03:24:37.470Z,0
2019-01-04T03:25:36.740Z,0
2019-01-04T03:26:37.222Z,0
2019-01-04T03:27:36.971Z,0
2019-01-04T03:28:37.434Z,0
2019-01-04T03:29:37.168Z,0
2019-01-04T03:30:37.483Z,0
2019-01-04T03:31:37.495Z,0
2019-01-04T03:32:36.935Z,0
2019-01-04T03:33:37.126Z,0
2019-01-04T03:34:37.386Z,0
2019-01-04T03:35:36.846Z,0
2019-01-04T03:36:37.097Z,0
2019-01-04T03:37:37.355Z,0
2019-01-04T03:38:37.319Z,0
2019-01-04T03:39:36.820Z,0
2019-01-04T03:40:37.053Z,0
2019-01-04T03:41:37.386Z,0
2019-01-04T03:42:37.309Z,0
2019-01-04T03:43:37.032Z,0
2019-01-04T03:44:37.295Z,0
2019-01-04T03:45:36.999Z,0
2019-01-04T03:46:36.968Z,0
2019-01-04T03:47:37.276Z,0
2019-01-04T03:48:36.219Z,0
2019-01-04T03:49:37.228Z,0
2019-01-04T03:50:37.921Z,0
2019-01-04T03:51:36.976Z,0
2019-01-04T03:52:37.187Z,0
2019-01-04T03:53:37.174Z,0
2019-01-04T03:54:37.150Z,0
2019-01-04T03:55:36.660Z,0
2019-01-04T03:56:37.241Z,0
2019-01-04T03:57:37.161Z,0
2019-01-04T03:58:36.845Z,0
2019-01-04T03:59:36.590Z,0
2019-01-04T04:00:37.088Z,0
2019-01-04T04:01:37.136Z,0
2019-01-04T04:02:37.061Z,0
2019-01-04T04:03:36.555Z,0
2019-01-04T04:04:37.064Z,0
2019-01-04T04:05:36.575Z,0
2019-01-04T04:06:36.802Z,0
2019-01-04T04:07:37.019Z,0
2019-01-04T04:08:36.726Z,0
2019-01-04T04:09:36.262Z,0
2019-01-04T04:10:36.995Z,0
2019-01-04T04:11:36.796Z,0
2019-01-04T04:12:36.943Z,0
2019-01-04T04:13:36.684Z,0
2019-01-04T04:14:36.923Z,0
2019-01-04T04:15:36.668Z,0
2019-01-04T04:16:36.531Z,0
2019-01-04T04:17:36.622Z,0
2019-01-04T04:18:36.643Z,0
2019-01-04T04:19:36.615Z,0
2019-01-04T04:20:40.370Z,0
2019-01-04T04:21:36.617Z,0
2019-01-04T04:22:36.814Z,0
2019-01-04T04:23:36.828Z,0
2019-01-04T04:24:36.848Z,0
2019-01-04T04:25:36.582Z,0
2019-01-04T04:26:36.579Z,0
2019-01-04T04:27:36.819Z,0
2019-01-04T04:28:36.786Z,0
2019-01-04T04:29:36.258Z,0
2019-01-04T04:30:36.495Z,0
2019-01-04T04:31:36.736Z,0
2019-01-04T04:32:36.466Z,0
2019-01-04T04:33:36.466Z,0
2019-01-04T04:34:35.970Z,0
2019-01-04T04:35:36.808Z,0
2019-01-04T04:36:36.520Z,0
2019-01-04T04:37:36.436Z,0
2019-01-04T04:38:36.158Z,0
2019-01-04T04:39:36.676Z,0
2019-01-04T04:40:37.993Z,0
2019-01-04T04:41:36.429Z,0
2019-01-04T04:42:36.352Z,0
2019-01-04T04:43:36.389Z,0
2019-01-04T04:44:36.596Z,0
2019-01-04T04:45:36.591Z,0
2019-01-04T04:46:36.675Z,0
2019-01-04T04:47:36.062Z,0
2019-01-04T04:48:36.326Z,0
2019-01-04T04:49:36.297Z,0
2019-01-04T04:50:36.547Z,0
2019-01-04T04:51:40.328Z,0
2019-01-04T04:52:36.258Z,0
2019-01-04T04:53:36.256Z,0
2019-01-04T04:54:36.524Z,0
2019-01-04T04:55:35.999Z,0
2019-01-04T04:56:36.206Z,0
2019-01-04T04:57:35.953Z,0
2019-01-04T04:58:36.444Z,0
2019-01-04T04:59:36.445Z,0
2019-01-04T05:00:36.187Z,0
2019-01-04T05:01:36.193Z,0
2019-01-04T05:02:35.648Z,0
2019-01-04T05:03:36.374Z,0
2019-01-04T05:04:35.892Z,0
2019-01-04T05:05:36.118Z,0
2019-01-04T05:06:36.117Z,0
2019-01-04T05:07:36.520Z,0
2019-01-04T05:08:35.835Z,0
2019-01-04T05:09:36.085Z,0
2019-01-04T05:10:36.316Z,0
2019-01-04T05:11:36.338Z,0
2019-01-04T05:12:36.279Z,0
2019-01-04T05:13:36.044Z,0
2019-01-04T05:14:35.818Z,0
2019-01-04T05:15:36.263Z,0
2019-01-04T05:16:36.066Z,0
2019-01-04T05:17:35.979Z,0
2019-01-04T05:18:35.737Z,0
2019-01-04T05:19:35.956Z,0
2019-01-04T05:20:36.193Z,0
2019-01-04T05:21:36.280Z,0
2019-01-04T05:22:37.211Z,0
2019-01-04T05:23:35.932Z,0
2019-01-04T05:24:35.417Z,0
2019-01-04T05:25:35.926Z,0
2019-01-04T05:26:35.700Z,0
2019-01-04T05:27:36.132Z,0
2019-01-04T05:28:35.853Z,0
2019-01-04T05:29:36.123Z,0
2019-01-04T05:30:35.852Z,0
2019-01-04T05:31:36.134Z,0
2019-01-04T05:32:36.137Z,0
2019-01-04T05:33:36.063Z,0
2019-01-04T05:34:35.303Z,0
2019-01-04T05:35:35.920Z,0
2019-01-04T05:36:35.855Z,0
2019-01-04T05:37:36.069Z,0
2019-01-04T05:38:35.513Z,0
2019-01-04T05:39:35.733Z,0
2019-01-04T05:40:35.953Z,0
2019-01-04T05:41:35.977Z,0
2019-01-04T05:42:35.463Z,0
2019-01-04T05:43:35.687Z,0
2019-01-04T05:44:35.672Z,0
2019-01-04T05:45:35.922Z,0
2019-01-04T05:46:35.991Z,0
2019-01-04T05:47:35.646Z,0
2019-01-04T05:48:35.874Z,0
2019-01-04T05:49:35.375Z,0
2019-01-04T05:50:35.605Z,0
2019-01-04T05:51:35.615Z,0
2019-01-04T05:52:36.338Z,0
2019-01-04T05:53:35.858Z,0
2019-01-04T05:54:35.832Z,0
2019-01-04T05:55:35.805Z,0
2019-01-04T05:56:35.357Z,0
2019-01-04T05:57:35.783Z,0
2019-01-04T05:58:35.769Z,0
2019-01-04T05:59:35.797Z,0
2019-01-04T06:00:35.268Z,0
2019-01-04T06:01:35.812Z,0
2019-01-04T06:02:35.231Z,0
2019-01-04T06:03:35.786Z,0
2019-01-04T06:04:35.453Z,0
2019-01-04T06:05:35.690Z,0
2019-01-04T06:06:35.528Z,0
2019-01-04T06:07:35.504Z,0
2019-01-04T06:08:35.448Z,0
2019-01-04T06:09:35.403Z,0
2019-01-04T06:10:35.631Z,0
2019-01-04T06:11:35.145Z,0
2019-01-04T06:12:35.106Z,0
2019-01-04T06:13:35.091Z,0
2019-01-04T06:14:35.581Z,0
2019-01-04T06:15:35.325Z,0
2019-01-04T06:16:35.120Z,0
2019-01-04T06:17:35.570Z,0
2019-01-04T06:18:35.566Z,0
2019-01-04T06:19:35.303Z,0
2019-01-04T06:20:35.029Z,0
2019-01-04T06:21:35.264Z,0
2019-01-04T06:22:36.619Z,0
2019-01-04T06:23:35.551Z,0
2019-01-04T06:24:34.969Z,0
2019-01-04T06:25:35.456Z,0
2019-01-04T06:26:35.340Z,0
2019-01-04T06:27:35.192Z,0
2019-01-04T06:28:35.194Z,0
2019-01-04T06:29:35.418Z,0
2019-01-04T06:30:35.153Z,0
2019-01-04T06:31:35.400Z,0
2019-01-04T06:32:35.127Z,0
2019-01-04T06:33:34.898Z,0
2019-01-04T06:34:35.396Z,0
2019-01-04T06:35:35.362Z,0
2019-01-04T06:36:35.389Z,0
2019-01-04T06:37:36.920Z,0
2019-01-04T06:38:34.836Z,0
2019-01-04T06:39:35.081Z,0
2019-01-04T06:40:34.549Z,0
2019-01-04T06:41:34.836Z,0
2019-01-04T06:42:34.773Z,0
2019-01-04T06:43:35.018Z,0
2019-01-04T06:44:34.536Z,0
2019-01-04T06:45:34.496Z,0
2019-01-04T06:46:35.053Z,0
2019-01-04T06:47:34.701Z,0
2019-01-04T06:48:34.961Z,0
2019-01-04T06:49:34.927Z,0
2019-01-04T06:50:35.204Z,0
2019-01-04T06:51:37.014Z,0
2019-01-04T06:52:39.198Z,0
2019-01-04T06:53:34.399Z,0
2019-01-04T06:54:34.629Z,0
2019-01-04T06:55:34.643Z,0
2019-01-04T06:56:34.906Z,0
2019-01-04T06:57:34.837Z,0
2019-01-04T06:58:34.598Z,0
2019-01-04T06:59:34.843Z,0
2019-01-04T07:00:34.568Z,0
2019-01-04T07:01:34.684Z,0
2019-01-04T07:02:34.790Z,0
2019-01-04T07:03:34.783Z,0
2019-01-04T07:04:34.753Z,0
2019-01-04T07:05:34.520Z,0
2019-01-04T07:06:34.821Z,0
2019-01-04T07:07:34.744Z,0
2019-01-04T07:08:34.958Z,0
2019-01-04T07:09:34.714Z,0
2019-01-04T07:10:34.945Z,0
2019-01-04T07:11:34.758Z,0
2019-01-04T07:12:34.924Z,5
2019-01-04T07:13:34.485Z,5
2019-01-04T07:14:34.901Z,5
2019-01-04T07:15:34.653Z,5
2019-01-04T07:16:34.684Z,5
2019-01-04T07:17:34.360Z,5
2019-01-04T07:18:34.625Z,5
2019-01-04T07:19:34.604Z,5
2019-01-04T07:20:34.594Z,10
2019-01-04T07:21:34.856Z,10
2019-01-04T07:22:34.329Z,10
2019-01-04T07:23:38.498Z,10
2019-01-04T07:24:34.289Z,10
2019-01-04T07:25:34.557Z,10
2019-01-04T07:26:34.801Z,10
2019-01-04T07:27:34.510Z,15
2019-01-04T07:28:33.989Z,15
2019-01-04T07:29:34.528Z,15
2019-01-04T07:30:34.229Z,15
2019-01-04T07:31:34.268Z,15
2019-01-04T07:32:34.198Z,20
2019-01-04T07:33:34.702Z,20
2019-01-04T07:34:34.211Z,20
2019-01-04T07:35:33.921Z,20
2019-01-04T07:36:33.917Z,25
2019-01-04T07:37:34.409Z,25
2019-01-04T07:38:34.220Z,25
2019-01-04T07:39:34.394Z,25
2019-01-04T07:40:34.351Z,25
2019-01-04T07:41:34.466Z,30
2019-01-04T07:42:33.585Z,30
2019-01-04T07:43:35.115Z,30
2019-01-04T07:44:34.309Z,30
2019-01-04T07:45:34.562Z,30
2019-01-04T07:46:34.156Z,30
2019-01-04T07:47:34.027Z,30
2019-01-04T07:48:34.294Z,35
2019-01-04T07:49:33.775Z,35
2019-01-04T07:50:34.526Z,35
2019-01-04T07:51:34.318Z,35
2019-01-04T07:52:34.223Z,35
2019-01-04T07:53:39.275Z,35
2019-01-04T07:54:34.213Z,35
2019-01-04T07:55:33.974Z,35
2019-01-04T07:56:33.949Z,35
2019-01-04T07:57:34.197Z,35
2019-01-04T07:58:34.156Z,35
2019-01-04T07:59:34.163Z,35
2019-01-04T08:00:34.396Z,40
2019-01-04T08:01:33.923Z,40
2019-01-04T08:02:33.880Z,40
2019-01-04T08:03:34.110Z,45
2019-01-04T08:04:33.898Z,45
2019-01-04T08:05:34.347Z,45
2019-01-04T08:06:33.881Z,50
2019-01-04T08:07:34.041Z,50
2019-01-04T08:08:34.341Z,50
2019-01-04T08:09:34.324Z,50
2019-01-04T08:10:33.816Z,50
2019-01-04T08:11:34.353Z,50
2019-01-04T08:12:33.759Z,50
2019-01-04T08:13:33.765Z,50
2019-01-04T08:14:34.000Z,55
2019-01-04T08:15:33.739Z,55
2019-01-04T08:16:34.000Z,55
2019-01-04T08:17:33.943Z,55
2019-01-04T08:18:34.191Z,60
2019-01-04T08:19:33.951Z,60
2019-01-04T08:20:33.674Z,60
2019-01-04T08:21:33.974Z,65
2019-01-04T08:22:33.704Z,65
2019-01-04T08:23:33.677Z,65
2019-01-04T08:24:34.256Z,70
2019-01-04T08:25:33.865Z,70
2019-01-04T08:26:33.444Z,70
2019-01-04T08:27:33.841Z,70
2019-01-04T08:28:33.614Z,70
2019-01-04T08:29:34.085Z,70
2019-01-04T08:30:34.054Z,75
2019-01-04T08:31:33.870Z,80
2019-01-04T08:32:33.820Z,80
2019-01-04T08:33:33.534Z,80
2019-01-04T08:34:34.006Z,80
2019-01-04T08:35:34.015Z,80
2019-01-04T08:36:33.776Z,85
2019-01-04T08:37:33.741Z,85
2019-01-04T08:38:33.756Z,85
2019-01-04T08:39:33.517Z,80
2019-01-04T08:40:33.719Z,80
2019-01-04T08:41:34.099Z,75
2019-01-04T08:42:33.698Z,75
2019-01-04T08:43:33.668Z,70
2019-01-04T08:44:33.697Z,70
2019-01-04T08:45:33.888Z,65
2019-01-04T08:46:33.976Z,65
2019-01-04T08:47:33.885Z,65
2019-01-04T08:48:33.624Z,65
2019-01-04T08:49:33.160Z,65
2019-01-04T08:50:33.842Z,65
2019-01-04T08:51:33.443Z,65
2019-01-04T08:52:33.594Z,65
2019-01-04T08:53:33.566Z,65
2019-01-04T08:54:34.947Z,65
2019-01-04T08:55:33.316Z,65
2019-01-04T08:56:33.611Z,65
2019-01-04T08:57:33.544Z,65
2019-01-04T08:58:33.546Z,70
2019-01-04T08:59:33.756Z,70
2019-01-04T09:00:33.506Z,75
2019-01-04T09:01:33.804Z,80
2019-01-04T09:02:33.266Z,85
2019-01-04T09:03:33.233Z,85
2019-01-04T09:04:33.454Z,85
2019-01-04T09:05:33.201Z,90
2019-01-04T09:06:33.493Z,90
2019-01-04T09:07:33.419Z,95
2019-01-04T09:08:33.188Z,95
2019-01-04T09:09:35.369Z,100
2019-01-04T09:10:33.177Z,100
2019-01-04T09:11:33.452Z,105
2019-01-04T09:12:33.640Z,105
2019-01-04T09:13:33.144Z,110
2019-01-04T09:14:33.131Z,115
2019-01-04T09:15:33.606Z,110
2019-01-04T09:16:33.369Z,110
2019-01-04T09:17:33.595Z,110
2019-01-04T09:18:33.078Z,110
2019-01-04T09:19:33.579Z,110
2019-01-04T09:20:33.551Z,110
2019-01-04T09:21:33.598Z,115
2019-01-04T09:22:33.051Z,120
2019-01-04T09:23:33.035Z,120
2019-01-04T09:24:35.991Z,125
2019-01-04T09:25:33.057Z,130
2019-01-04T09:26:33.512Z,130
2019-01-04T09:27:33.275Z,135
2019-01-04T09:28:33.227Z,140
2019-01-04T09:29:33.221Z,140
2019-01-04T09:30:32.973Z,140
2019-01-04T09:31:33.338Z,145
2019-01-04T09:32:33.439Z,145
2019-01-04T09:33:33.465Z,145
2019-01-04T09:34:33.426Z,145
2019-01-04T09:35:32.937Z,145
2019-01-04T09:36:33.549Z,145
2019-01-04T09:37:33.401Z,145
2019-01-04T09:38:33.388Z,145
2019-01-04T09:39:33.126Z,145
2019-01-04T09:40:33.162Z,145
2019-01-04T09:41:33.161Z,145
2019-01-04T09:42:32.868Z,140
2019-01-04T09:43:33.090Z,145
2019-01-04T09:44:32.843Z,150
2019-01-04T09:45:32.834Z,145
2019-01-04T09:46:33.597Z,145
2019-01-04T09:47:33.317Z,145
2019-01-04T09:48:33.295Z,145
2019-01-04T09:49:32.558Z,150
2019-01-04T09:50:33.275Z,150
2019-01-04T09:51:33.218Z,150
2019-01-04T09:52:33.277Z,150
2019-01-04T09:53:33.248Z,150
2019-01-04T09:54:33.011Z,150
2019-01-04T09:55:34.647Z,150
2019-01-04T09:56:33.047Z,155
2019-01-04T09:57:32.857Z,155
2019-01-04T09:58:32.748Z,155
2019-01-04T09:59:32.710Z,155
2019-01-04T10:00:33.247Z,155
2019-01-04T10:01:32.985Z,155
2019-01-04T10:02:33.206Z,155
2019-01-04T10:03:32.672Z,155
2019-01-04T10:04:32.922Z,150
2019-01-04T10:05:32.896Z,155
2019-01-04T10:06:32.967Z,155
2019-01-04T10:07:33.134Z,155
2019-01-04T10:08:32.625Z,160
2019-01-04T10:09:32.887Z,165
2019-01-04T10:10:33.722Z,165
2019-01-04T10:11:32.622Z,170
2019-01-04T10:12:32.851Z,170
2019-01-04T10:13:32.843Z,170
2019-01-04T10:14:32.861Z,165
2019-01-04T10:15:32.351Z,165
2019-01-04T10:16:33.136Z,160
2019-01-04T10:17:33.062Z,155
2019-01-04T10:18:33.023Z,150
2019-01-04T10:19:33.055Z,145
2019-01-04T10:20:32.537Z,140
2019-01-04T10:21:32.307Z,135
2019-01-04T10:22:32.754Z,130
2019-01-04T10:23:32.978Z,120
2019-01-04T10:24:32.991Z,115
2019-01-04T10:25:33.616Z,110
2019-01-04T10:26:32.998Z,105
2019-01-04T10:27:32.457Z,110
2019-01-04T10:28:32.911Z,105
2019-01-04T10:29:32.452Z,110
2019-01-04T10:30:32.665Z,115
2019-01-04T10:31:32.709Z,120
2019-01-04T10:32:32.680Z,130
2019-01-04T10:33:32.969Z,125
2019-01-04T10:34:32.401Z,125
2019-01-04T10:35:32.646Z,125
2019-01-04T10:36:32.892Z,130
2019-01-04T10:37:32.864Z,130
2019-01-04T10:38:32.875Z,130
2019-01-04T10:39:32.369Z,130
2019-01-04T10:40:32.409Z,130
2019-01-04T10:41:32.674Z,130
2019-01-04T10:42:32.617Z,130
2019-01-04T10:43:32.579Z,130
2019-01-04T10:44:32.571Z,130
2019-01-04T10:45:32.563Z,130
2019-01-04T10:46:32.308Z,130
2019-01-04T10:47:32.564Z,125
2019-01-04T10:48:32.793Z,125
2019-01-04T10:49:32.285Z,120
2019-01-04T10:50:32.773Z,115
2019-01-04T10:51:32.556Z,110
2019-01-04T10:52:33.181Z,105
2019-01-04T10:53:32.241Z,100
2019-01-04T10:54:32.235Z,100
2019-01-04T10:55:32.536Z,95
2019-01-04T10:56:32.564Z,90
2019-01-04T10:57:32.696Z,85
2019-01-04T10:58:32.446Z,80
2019-01-04T10:59:32.681Z,75
2019-01-04T11:00:32.702Z,70
2019-01-04T11:01:32.720Z,70
2019-01-04T11:02:32.438Z,70
2019-01-04T11:03:32.698Z,70
2019-01-04T11:04:32.637Z,70
2019-01-04T11:05:32.125Z,75
2019-01-04T11:06:32.450Z,75
2019-01-04T11:07:32.097Z,75
2019-01-04T11:08:32.134Z,70
2019-01-04T11:09:32.586Z,65
2019-01-04T11:10:32.340Z,65
2019-01-04T11:11:33.479Z,60
2019-01-04T11:12:32.569Z,65
2019-01-04T11:13:32.563Z,65
2019-01-04T11:14:32.572Z,60
2019-01-04T11:15:32.570Z,60
2019-01-04T11:16:31.906Z,60
2019-01-04T11:17:32.269Z,65
2019-01-04T11:18:32.282Z,70
2019-01-04T11:19:32.242Z,75
2019-01-04T11:20:32.215Z,80
2019-01-04T11:21:32.248Z,95
2019-01-04T11:22:32.597Z,105
2019-01-04T11:23:32.231Z,105
2019-01-04T11:24:32.189Z,110
2019-01-04T11:25:32.181Z,110
2019-01-04T11:26:35.186Z,110
2019-01-04T11:27:32.408Z,110
2019-01-04T11:28:31.913Z,110
2019-01-04T11:29:32.155Z,105
2019-01-04T11:30:32.396Z,110
2019-01-04T11:31:32.186Z,105
2019-01-04T11:32:31.856Z,105
2019-01-04T11:33:32.100Z,110
2019-01-04T11:34:32.084Z,100
2019-01-04T11:35:31.842Z,95
2019-01-04T11:36:32.124Z,105
2019-01-04T11:37:32.312Z,110
2019-01-04T11:38:32.099Z,105
2019-01-04T11:39:32.310Z,105
2019-01-04T11:40:32.288Z,110
2019-01-04T11:41:32.454Z,110
2019-01-04T11:42:32.011Z,115
2019-01-04T11:43:32.245Z,115
2019-01-04T11:44:32.032Z,115
2019-01-04T11:45:32.220Z,110
2019-01-04T11:46:32.854Z,110
2019-01-04T11:47:31.753Z,110
2019-01-04T11:48:31.715Z,110
2019-01-04T11:49:32.232Z,110
2019-01-04T11:50:31.451Z,120
2019-01-04T11:51:31.938Z,120
2019-01-04T11:52:38.230Z,125
2019-01-04T11:53:31.712Z,125
2019-01-04T11:54:31.904Z,125
2019-01-04T11:55:31.889Z,125
2019-01-04T11:56:32.243Z,125
2019-01-04T11:57:32.127Z,125
2019-01-04T11:58:32.113Z,130
2019-01-04T11:59:31.831Z,120
2019-01-04T12:00:32.094Z,115
2019-01-04T12:01:32.469Z,110
2019-01-04T12:02:35.920Z,110
2019-01-04T12:03:32.088Z,110
2019-01-04T12:04:32.032Z,110
2019-01-04T12:05:32.023Z,115
2019-01-04T12:06:31.868Z,115
2019-01-04T12:07:31.766Z,120
2019-01-04T12:08:31.999Z,120
2019-01-04T12:09:31.996Z,115
2019-01-04T12:10:31.711Z,115
2019-01-04T12:11:31.839Z,110
2019-01-04T12:12:31.997Z,105
2019-01-04T12:13:31.936Z,100
2019-01-04T12:14:31.945Z,100
2019-01-04T12:15:31.730Z,95
2019-01-04T12:16:31.753Z,85
2019-01-04T12:17:31.405Z,85
2019-01-04T12:18:31.917Z,80
2019-01-04T12:19:31.392Z,80
2019-01-04T12:20:31.620Z,85
2019-01-04T12:21:31.643Z,85
2019-01-04T12:22:32.484Z,80
2019-01-04T12:23:31.730Z,75
2019-01-04T12:24:31.864Z,75
2019-01-04T12:25:31.895Z,70
2019-01-04T12:26:31.615Z,70
2019-01-04T12:27:33.911Z,70
2019-01-04T12:28:31.307Z,70
2019-01-04T12:29:31.558Z,70
2019-01-04T12:30:31.839Z,70
2019-01-04T12:31:31.605Z,75
2019-01-04T12:32:31.795Z,80
2019-01-04T12:33:31.559Z,80
2019-01-04T12:34:31.764Z,80
2019-01-04T12:35:31.705Z,80
2019-01-04T12:36:31.789Z,75
2019-01-04T12:37:31.496Z,70
2019-01-04T12:38:31.711Z,60
2019-01-04T12:39:31.230Z,55
2019-01-04T12:40:31.452Z,55
2019-01-04T12:41:31.709Z,55
2019-01-04T12:42:33.330Z,55
2019-01-04T12:43:31.416Z,60
2019-01-04T12:44:31.391Z,65
2019-01-04T12:45:31.395Z,70
2019-01-04T12:46:31.434Z,80
2019-01-04T12:47:31.385Z,80
2019-01-04T12:48:31.376Z,75
2019-01-04T12:49:31.352Z,75
2019-01-04T12:50:31.354Z,70
2019-01-04T12:51:31.420Z,65
2019-01-04T12:52:31.330Z,65
2019-01-04T12:53:30.820Z,60
2019-01-04T12:54:31.300Z,60
2019-01-04T12:55:31.329Z,60
2019-01-04T12:56:31.405Z,65
2019-01-04T12:57:31.506Z,75
2019-01-04T12:58:31.040Z,85
2019-01-04T12:59:31.281Z,90
2019-01-04T13:00:30.758Z,90
2019-01-04T13:01:31.530Z,85
2019-01-04T13:02:30.977Z,85
2019-01-04T13:03:31.224Z,90
2019-01-04T13:04:30.971Z,100
2019-01-04T13:05:31.849Z,100
2019-01-04T13:06:31.618Z,105
2019-01-04T13:07:30.963Z,105
2019-01-04T13:08:31.161Z,110
2019-01-04T13:09:31.453Z,110
2019-01-04T13:10:31.363Z,110
2019-01-04T13:11:31.430Z,110
2019-01-04T13:12:30.929Z,110
2019-01-04T13:13:31.088Z,110
2019-01-04T13:14:30.838Z,105
2019-01-04T13:15:31.085Z,105
2019-01-04T13:16:31.389Z,100
2019-01-04T13:17:31.368Z,100
2019-01-04T13:18:30.833Z,100
2019-01-04T13:19:34.963Z,95
2019-01-04T13:20:31.294Z,95
2019-01-04T13:21:31.321Z,95
2019-01-04T13:22:31.072Z,95
2019-01-04T13:23:31.044Z,90
2019-01-04T13:24:30.805Z,85
2019-01-04T13:25:31.018Z,85
2019-01-04T13:26:31.069Z,80
2019-01-04T13:27:32.624Z,80
2019-01-04T13:28:30.752Z,75
2019-01-04T13:29:30.966Z,75
2019-01-04T13:30:31.192Z,80
2019-01-04T13:31:31.024Z,80
2019-01-04T13:32:30.466Z,75
2019-01-04T13:33:30.672Z,70
2019-01-04T13:34:30.716Z,65
2019-01-04T13:35:30.903Z,60
2019-01-04T13:36:30.718Z,55
2019-01-04T13:37:31.134Z,55
2019-01-04T13:38:30.654Z,50
2019-01-04T13:39:30.872Z,55
2019-01-04T13:40:31.096Z,55
2019-01-04T13:41:30.689Z,55
2019-01-04T13:42:30.655Z,55
2019-01-04T13:43:30.832Z,55
2019-01-04T13:44:30.833Z,55
2019-01-04T13:45:30.554Z,55
2019-01-04T13:46:31.104Z,50
2019-01-04T13:47:36.960Z,50
2019-01-04T13:48:30.789Z,50
2019-01-04T13:49:30.558Z,50
2019-01-04T13:50:31.076Z,50
2019-01-04T13:51:30.589Z,50
2019-01-04T13:52:30.758Z,50
2019-01-04T13:53:30.758Z,50
2019-01-04T13:54:30.758Z,50
2019-01-04T13:55:30.732Z,50
2019-01-04T13:56:30.736Z,55
2019-01-04T13:57:30.737Z,55
2019-01-04T13:58:32.958Z,50
2019-01-04T13:59:30.926Z,55
2019-01-04T14:00:30.685Z,55
2019-01-04T14:01:30.510Z,60
2019-01-04T14:02:30.461Z,60
2019-01-04T14:03:30.385Z,60
2019-01-04T14:04:30.627Z,60
2019-01-04T14:05:30.879Z,60
2019-01-04T14:06:30.220Z,60
2019-01-04T14:07:30.843Z,60
2019-01-04T14:08:30.119Z,55
2019-01-04T14:09:30.345Z,55
2019-01-04T14:10:30.573Z,50
2019-01-04T14:11:30.605Z,50
2019-01-04T14:12:30.559Z,50
2019-01-04T14:13:30.362Z,50
2019-01-04T14:14:30.805Z,55
2019-01-04T14:15:30.331Z,50
2019-01-04T14:16:30.572Z,55
2019-01-04T14:17:30.786Z,60
2019-01-04T14:18:30.007Z,60
2019-01-04T14:19:30.514Z,60
2019-01-04T14:20:30.230Z,55
2019-01-04T14:21:30.017Z,55
2019-01-04T14:22:30.831Z,55
2019-01-04T14:23:35.754Z,50
2019-01-04T14:24:30.214Z,50
2019-01-04T14:25:30.199Z,45